João Fonseca

Recruteur - Fluminense
30 Sept 2027
Jeudi
Processus

Personnalité

Adaptabilité (16) Ambition (16) Controverse (3) Loyauté (12) Pression (14) Professionnalisme (17) Sportivité (14) Tempérament (7)

Profil

Style d'entraînement Démocratique
Diplôme Continental Pro
Détermination 8
Gestion des joueurs 6
Motivation 7
Discipline 10
Satisfaction professionnelle
46%
Fatigue
0%
Rôle Recruteur
Salaire 32.7K p/s
Contrat 14.03.2028

Performance

Comportement Bon
Efficacité de l'entraînement
24%
Développement des joueurs
35%
Prévention des blessures
30%
Mise en place tactique
60%

Événements récents

A participé à une réunion de recrutement maintenant
A recommandé une cible de transfert maintenant
A participé à une réunion de recrutement 7j
A recommandé une cible de transfert 7j
A recommandé une cible de transfert 7j
A recommandé une cible de transfert 7j
A recommandé une cible de transfert 14j
A recommandé une cible de transfert 14j

Suivi en cours

104
Joueur Club Statut Capacité Confiance Observé Dernière observation Dernier vote
Pedro Martins São Paulo Actif 102 / 112 65% 1 12.07.2027 Approuver
Jonathan Calleri Sport Recife Rapport prêt 127 / 126 65% 1 06.06.2027 Approuver
Dudu Vitória Actif 115 / 121 65% 1 03.06.2027 Approuver
Razvan Balasa Crvena Zvezda Actif 150 / 152 40% 4 31.05.2027 -
Francisco Moura Lusitânia Lourosa Actif 127 / 143 40% 2 21.12.2026 -
Pau Víctor AVS Actif 146 / 130 40% 7 14.12.2026 -
Barış Alper Yılmaz Galatasaray Actif 152 / 157 40% 6 30.11.2026 -
Giovanni Simeone Torino Actif 149 / 148 40% 1 30.11.2026 -
Ansu Fati Monaco Actif 148 / 140 40% 1 29.11.2026 -
Ismaïla Sarr Crystal Palace Actif 145 / 148 40% 1 29.11.2026 -
Dodi Lukébakio Benfica Actif 136 / 143 40% 5 28.11.2026 -
Esteban Lepaul Stade Rennais Actif 130 / 126 40% 1 28.11.2026 -
Leandro Barreiro Benfica Actif 140 / 141 40% 2 27.11.2026 -
Geny Sporting CP Actif 144 / 148 40% 2 27.11.2026 -
Pepê Porto Actif 148 / 150 40% 1 26.11.2026 -
Gabriel Jesus Barcelona Actif 158 / 161 40% 5 22.11.2026 -
Marco Asensio Fenerbahce Actif 153 / 163 40% 1 22.11.2026 -
William Gomes Porto Actif 146 / 142 40% 2 21.11.2026 -
Renan Lodi Atlético Mineiro Actif 140 / 142 40% 3 21.11.2026 -
Jesús Ricardo Angulo Toluca Actif 128 / 128 40% 2 21.11.2026 -
Lucas Veríssimo Santos Actif 141 / 133 40% 2 21.11.2026 -
William Cruzeiro Actif 137 / 128 40% 2 20.11.2026 -
Luís Esteves Atlas Actif 125 / 122 40% 2 20.11.2026 -
Gonçalo Inácio Sporting CP Actif 156 / 149 40% 1 19.11.2026 -
Diego Rossi Monterrey Actif 132 / 129 40% 1 19.11.2026 -
Nicolò Zaniolo Udinese Actif 136 / 150 40% 1 19.11.2026 -
Randal Kolo Muani Juventus Actif 148 / 140 40% 3 17.11.2026 -
Jens Odgaard Bologna Actif 146 / 128 40% 1 17.11.2026 -
Víctor Gómez Braga Actif 148 / 138 40% 3 16.11.2026 -
Matheus Pereira Cruzeiro Actif 137 / 138 40% 1 16.11.2026 -
Leon Goretzka Aston Villa Actif 161 / 147 40% 2 14.11.2026 -
Sikou Niakaté Braga Actif 127 / 143 40% 1 14.11.2026 -
Petar Musa Adana Demirspor Actif 129 / 133 40% 3 13.11.2026 -
Heorhii Sudakov Benfica Actif 136 / 154 40% 5 12.11.2026 -
Tariq Lamptey Queens Park Rangers Actif 128 / 125 40% 1 11.11.2026 -
Dominic Calvert-Lewin Leeds United Actif 139 / 132 40% 7 08.11.2026 -
Romelu Castagne KV Oostende Actif 136 / 135 40% 5 08.11.2026 -
Christian Krasnodar Actif 132 / 136 40% 1 07.11.2026 -
Youssef En-Nesyri Al-Ittihad Actif 142 / 148 40% 4 04.11.2026 -
Dávid Strelec Middlesbrough Actif 128 / 138 40% 1 04.11.2026 -
Marcos Antonio Sport Recife Actif 141 / 138 40% 2 01.11.2026 -
Taty Castellanos West Ham United Actif 143 / 141 40% 1 01.11.2026 -
Andreas Pereira Palmeiras Actif 145 / 132 40% 1 01.11.2026 -
Gérson Cruzeiro Actif 134 / 136 40% 1 01.11.2026 -
Saša Lukić Ipswich Town Actif 149 / 149 40% 1 29.10.2026 -
Caio Alexandre Bahia Actif 142 / 132 40% 1 29.10.2026 -
Sander Berge Fulham Actif 135 / 142 40% 1 29.10.2026 -
Andrés Gómez Vasco da Gama Actif 125 / 131 40% 1 28.10.2026 -
Steven Bergwijn Al-Ittihad Actif 154 / 136 40% 3 27.10.2026 -
Santiago Castro AS Roma Actif 133 / 147 40% 1 27.10.2026 -
Fabrício Bruno Cruzeiro Actif 130 / 140 40% 1 25.10.2026 -
Danilo Botafogo Actif 131 / 137 40% 1 25.10.2026 -
Roberto Fernández Braga Actif 150 / 129 40% 5 19.10.2026 -
Leo Ceara Kashima Antlers Actif 123 / 125 40% 1 19.10.2026 -
Rômulo RB Leipzig Actif 152 / 134 40% 1 16.10.2026 -
Brian Brobbey Sunderland Actif 127 / 135 40% 3 15.10.2026 -
Raheem Sterling Feyenoord Actif 137 / 143 40% 1 14.10.2026 -
Félix Lemaréchal Club Brugge Actif 128 / 143 40% 1 14.10.2026 -
Soufiane Rahimi Guadalajara Actif 134 / 136 40% 2 13.10.2026 -
Jean-Philippe Mateta Crystal Palace Actif 149 / 150 40% 4 12.10.2026 -
Ángel Correa River Plate Actif 143 / 147 40% 3 12.10.2026 -
Nuno Santos Sporting CP Actif 150 / 148 40% 2 12.10.2026 -
Andrea Pinamonti Lazio Actif 125 / 131 40% 2 12.10.2026 -
Alexey Miranchuk St. Gallen Actif 130 / 132 40% 3 10.10.2026 -
Vangelis Pavlidis Twente Actif 149 / 151 40% 2 10.10.2026 -
Fotis Ioannidis Rio Ave Actif 141 / 124 40% 1 09.10.2026 -
Joaquín Panichelli Le Havre AC Actif 152 / 130 40% 2 08.10.2026 -
Gonçalo Ramos AC Milan Actif 144 / 151 40% 1 08.10.2026 -
Lewis Cook Bournemouth Actif 139 / 144 40% 1 06.10.2026 -
Jean Lucas Bahia Actif 128 / 126 40% 1 06.10.2026 -
Matías Fernández-Pardo Newcastle United Actif 138 / 145 40% 1 06.10.2026 -
Fredrik Aursnes Benfica Actif 158 / 144 40% 1 05.10.2026 -
Jørgen Strand Larsen Crystal Palace Actif 132 / 132 40% 1 01.10.2026 -
Yoan Bonny Inter Actif 152 / 146 40% 2 29.09.2026 -
Alberto Costa Porto Actif 138 / 133 40% 1 28.09.2026 -
Ivan Toney Al-Ahli Actif 163 / 160 40% 4 25.09.2026 -
Che Adams Torino Actif 128 / 136 40% 1 25.09.2026 -
Mateo Pellegrino Fiorentina Actif 132 / 134 40% 1 25.09.2026 -
Borja Sainz Fiorentina Actif 136 / 137 40% 2 22.09.2026 -
Noah Okafor Leeds United Actif 145 / 138 40% 1 20.09.2026 -
Gonzalo Fulham Actif 136 / 156 40% 1 17.09.2026 -
Arthur Santos Actif 140 / 138 40% 1 16.09.2026 -
Aníbal Moreno River Plate Actif 137 / 126 40% 1 16.09.2026 -
Agustín Palavecino Cruz Azul Actif 131 / 141 40% 1 15.09.2026 -
Carlos Vicente Birmingham Actif 145 / 146 40% 1 14.09.2026 -
Pablo Rosario Porto Actif 138 / 132 40% 1 09.09.2026 -
Breel Embolo Atlanta United FC Actif 131 / 138 40% 2 06.09.2026 -
Sergi Altimira Sporting CP Actif 125 / 127 40% 1 06.09.2026 -
Luis Sinisterra Cruzeiro Actif 131 / 136 40% 1 06.09.2026 -
Eddie Nketiah Crystal Palace Actif 127 / 150 40% 2 30.08.2026 -
Jhon Arias Palmeiras Actif 137 / 137 40% 1 30.08.2026 -
Thiago Brentford Actif 148 / 138 40% 1 30.08.2026 -
Kerem Aktürkoğlu Fenerbahce Actif 131 / 150 40% 1 30.08.2026 -
Amine Gouiri Olympique de Marseille Actif 138 / 134 40% 2 22.08.2026 -
Oussama Idrissi Pachuca Actif 136 / 142 40% 1 17.08.2026 -
Hwang In-Beom Porto Actif 137 / 134 40% 1 17.08.2026 -
Alexander Bah Benfica Actif 130 / 137 40% 1 16.08.2026 -
Jack Hinshelwood Brighton Actif 151 / 138 40% 1 15.08.2026 -
Gonçalo Guedes Real Sociedad Actif 152 / 135 40% 2 08.08.2026 -
Marcos Llorente Atlético Madrid Actif 149 / 165 40% 1 07.08.2026 -
Jorge De Frutos Rayo Vallecano Actif 148 / 152 40% 1 07.08.2026 -
Joshua Zirkzee Manchester United Actif 151 / 137 40% 1 07.08.2026 -
Ricardo Horta Braga Actif 141 / 135 40% 2 06.08.2026 -
Maximilian Beier Borussia Dortmund Actif 141 / 149 40% 2 03.08.2026 -